createdAt,value
2018-08-24T00:00:15.239Z,16.70
2018-08-24T00:02:44.009Z,16.60
2018-08-24T00:05:12.827Z,16.03
2018-08-24T00:07:42.018Z,15.80
2018-08-24T00:10:10.878Z,14.90
2018-08-24T00:12:39.786Z,15.47
2018-08-24T00:15:08.484Z,15.50
2018-08-24T00:17:37.073Z,15.47
2018-08-24T00:20:05.817Z,15.17
2018-08-24T00:22:34.442Z,16.50
2018-08-24T00:25:03.014Z,16.73
2018-08-24T00:27:31.604Z,17.15
2018-08-24T00:30:00.348Z,18.80
2018-08-24T00:32:29.214Z,14.13
2018-08-24T00:34:58.067Z,17.37
2018-08-24T00:37:27.577Z,18.40
2018-08-24T00:39:56.267Z,16.97
2018-08-24T00:42:25.328Z,17.60
2018-08-24T00:44:53.899Z,15.17
2018-08-24T00:47:22.447Z,18.47
2018-08-24T00:49:51.161Z,16.10
2018-08-24T00:52:19.876Z,17.27
2018-08-24T00:54:48.619Z,15.17
2018-08-24T00:57:17.381Z,17.00
2018-08-24T00:59:46.457Z,18.60
2018-08-24T01:02:15.164Z,19.90
2018-08-24T01:04:43.927Z,16.03
2018-08-24T01:07:14.354Z,16.97
2018-08-24T01:25:13.925Z,14.43
2018-08-24T01:27:42.664Z,13.13
2018-08-24T01:30:11.761Z,13.78
2018-08-24T01:32:40.793Z,14.13
2018-08-24T01:35:10.020Z,14.10
2018-08-24T01:37:38.830Z,14.87
2018-08-24T01:40:07.791Z,12.85
2018-08-24T01:42:36.633Z,16.93
2018-08-24T01:45:05.923Z,14.33
2018-08-24T01:47:34.820Z,19.33
2018-08-24T01:50:04.377Z,12.77
2018-08-24T01:52:33.323Z,12.30
2018-08-24T01:55:02.008Z,13.80
2018-08-24T01:57:30.850Z,11.80
2018-08-24T01:59:59.618Z,15.83
2018-08-24T02:02:28.298Z,13.32
2018-08-24T02:04:56.814Z,12.80
2018-08-24T02:07:25.360Z,12.90
2018-08-24T02:09:53.913Z,13.77
2018-08-24T02:12:27.813Z,15.00
2018-08-24T02:14:56.367Z,16.20
2018-08-24T02:17:30.509Z,12.25
2018-08-24T02:20:04.501Z,13.87
2018-08-24T02:22:33.117Z,13.60
2018-08-24T02:25:01.861Z,11.40
2018-08-24T02:27:30.495Z,12.50
2018-08-24T02:29:59.552Z,10.67
2018-08-24T02:32:28.159Z,11.17
2018-08-24T02:34:59.540Z,12.30
2018-08-24T02:37:29.658Z,17.20
2018-08-24T02:39:58.722Z,13.10
2018-08-24T02:42:27.399Z,11.10
2018-08-24T02:44:56.339Z,12.57
2018-08-24T02:47:25.195Z,13.30
2018-08-24T02:49:54.204Z,11.93
2018-08-24T02:52:23.034Z,11.80
2018-08-24T02:54:51.769Z,11.67
2018-08-24T02:57:20.484Z,14.53
2018-08-24T02:59:49.287Z,13.33
2018-08-24T03:02:17.908Z,11.40
2018-08-24T03:04:46.647Z,19.20
2018-08-24T03:07:15.292Z,14.10
2018-08-24T03:12:17.752Z,10.77
2018-08-24T03:14:46.742Z,10.97
2018-08-24T03:17:21.115Z,12.67
2018-08-24T03:19:49.975Z,11.30
2018-08-24T03:22:18.791Z,10.90
2018-08-24T03:24:47.738Z,12.27
2018-08-24T03:27:16.633Z,12.07
2018-08-24T03:29:45.343Z,14.77
2018-08-24T03:32:14.229Z,11.27
2018-08-24T03:34:42.977Z,11.93
2018-08-24T03:37:11.737Z,11.50
2018-08-24T03:39:40.580Z,12.67
2018-08-24T03:42:09.411Z,13.37
2018-08-24T03:44:38.241Z,11.37
2018-08-24T03:47:07.025Z,11.40
2018-08-24T03:49:35.645Z,13.67
2018-08-24T03:52:04.170Z,11.80
2018-08-24T03:54:32.732Z,12.60
2018-08-24T03:57:01.375Z,12.60
2018-08-24T03:59:29.894Z,12.80
2018-08-24T04:01:58.468Z,12.40
2018-08-24T04:04:27.209Z,12.00
2018-08-24T04:06:55.915Z,13.67
2018-08-24T04:09:24.479Z,11.73
2018-08-24T04:11:53.273Z,13.80
2018-08-24T04:14:22.529Z,11.90
2018-08-24T04:16:56.464Z,12.37
2018-08-24T04:19:29.009Z,11.63
2018-08-24T04:21:58.152Z,13.30
2018-08-24T04:24:27.370Z,13.47
2018-08-24T04:26:56.862Z,11.80
2018-08-24T04:29:25.978Z,13.30
2018-08-24T04:31:54.813Z,12.30
2018-08-24T04:34:23.481Z,12.80
2018-08-24T04:36:52.043Z,11.90
2018-08-24T04:39:20.996Z,16.80
2018-08-24T04:41:50.033Z,13.87
2018-08-24T04:44:18.798Z,15.00
2018-08-24T04:46:47.336Z,12.77
2018-08-24T04:49:15.797Z,12.63
2018-08-24T04:51:44.336Z,12.20
2018-08-24T04:54:12.968Z,12.80
2018-08-24T04:56:41.475Z,13.77
2018-08-24T04:59:10.011Z,12.00
2018-08-24T05:01:38.859Z,14.17
2018-08-24T05:04:07.918Z,13.23
2018-08-24T05:06:36.623Z,12.83
2018-08-24T05:09:08.637Z,13.35
2018-08-24T05:11:38.507Z,13.93
2018-08-24T05:14:07.983Z,12.17
2018-08-24T05:16:36.999Z,12.70
2018-08-24T05:19:16.929Z,12.93
2018-08-24T05:21:46.288Z,13.50
2018-08-24T05:24:15.433Z,12.93
2018-08-24T05:26:44.337Z,14.55
2018-08-24T05:29:13.027Z,12.00
2018-08-24T05:31:42.010Z,14.33
2018-08-24T05:34:10.987Z,14.43
2018-08-24T05:36:39.729Z,13.40
2018-08-24T05:39:09.205Z,17.20
2018-08-24T05:41:37.951Z,19.17
2018-08-24T05:44:06.874Z,15.53
2018-08-24T05:46:35.465Z,12.70
2018-08-24T05:49:04.156Z,15.30
2018-08-24T05:51:33.212Z,11.70
2018-08-24T05:54:02.440Z,14.53
2018-08-24T05:56:31.342Z,13.83
2018-08-24T05:59:00.140Z,15.20
2018-08-24T06:01:28.924Z,13.70
2018-08-24T06:03:58.007Z,15.60
2018-08-24T06:06:27.685Z,13.47
2018-08-24T06:09:02.988Z,14.07
2018-08-24T06:11:32.188Z,13.70
2018-08-24T06:14:01.014Z,14.17
2018-08-24T06:16:30.247Z,13.47
2018-08-24T06:18:59.465Z,13.37
2018-08-24T06:21:28.539Z,15.53
2018-08-24T06:23:57.623Z,13.37
2018-08-24T06:26:26.500Z,13.90
2018-08-24T06:28:55.415Z,13.63
2018-08-24T06:31:24.441Z,14.50
2018-08-24T06:33:53.607Z,13.70
2018-08-24T06:36:22.712Z,12.83
2018-08-24T06:38:51.817Z,14.60
2018-08-24T06:41:21.010Z,16.33
2018-08-24T06:43:49.999Z,14.03
2018-08-24T06:46:18.960Z,17.20
2018-08-24T06:48:48.082Z,13.60
2018-08-24T06:51:17.456Z,14.47
2018-08-24T06:53:46.549Z,12.83
2018-08-24T06:56:15.866Z,13.25
2018-08-24T06:58:45.129Z,15.30
2018-08-24T07:01:13.960Z,17.53
2018-08-24T07:03:43.030Z,13.70
2018-08-24T07:06:12.131Z,19.53
2018-08-24T07:08:41.102Z,12.13
2018-08-24T07:11:10.065Z,14.03
2018-08-24T07:13:39.337Z,12.00
2018-08-24T07:16:08.416Z,23.57
2018-08-24T07:18:37.313Z,17.60
2018-08-24T07:21:06.478Z,13.20
2018-08-24T07:23:36.313Z,11.77
2018-08-24T07:26:07.653Z,13.27
2018-08-24T07:28:36.563Z,11.20
2018-08-24T07:31:05.480Z,12.30
2018-08-24T07:33:34.280Z,12.10
2018-08-24T07:36:03.215Z,11.20
2018-08-24T07:38:32.039Z,11.83
2018-08-24T07:41:00.833Z,12.63
2018-08-24T07:43:29.974Z,11.07
2018-08-24T07:45:58.952Z,15.70
2018-08-24T07:48:27.941Z,14.50
2018-08-24T07:50:57.210Z,11.80
2018-08-24T07:53:26.138Z,14.17
2018-08-24T07:55:55.083Z,10.80
2018-08-24T07:58:24.397Z,11.37
2018-08-24T08:00:53.509Z,11.30
2018-08-24T08:03:22.452Z,15.00
2018-08-24T08:05:51.293Z,13.90
2018-08-24T08:08:20.327Z,11.93
2018-08-24T08:10:49.315Z,10.73
2018-08-24T08:13:18.151Z,12.30
2018-08-24T08:15:46.845Z,12.43
2018-08-24T08:18:15.551Z,11.53
2018-08-24T08:20:44.350Z,12.53
2018-08-24T08:23:12.996Z,12.23
2018-08-24T08:25:42.134Z,10.20
2018-08-24T08:28:11.054Z,11.20
2018-08-24T08:30:39.750Z,12.57
2018-08-24T08:33:08.701Z,13.20
2018-08-24T08:35:37.529Z,10.80
2018-08-24T08:38:06.521Z,12.70
2018-08-24T08:40:35.359Z,11.43
2018-08-24T08:43:04.451Z,14.00
2018-08-24T08:45:33.486Z,10.67
2018-08-24T08:48:05.809Z,17.62
2018-08-24T08:50:34.789Z,10.97
2018-08-24T08:53:03.594Z,13.40
2018-08-24T08:55:32.508Z,12.20
2018-08-24T08:58:01.278Z,10.13
2018-08-24T09:00:30.333Z,9.27
2018-08-24T09:02:59.111Z,10.20
2018-08-24T09:05:27.930Z,9.20
2018-08-24T09:07:57.161Z,9.43
2018-08-24T09:10:25.997Z,9.50
2018-08-24T09:12:55.339Z,10.07
2018-08-24T09:15:24.042Z,9.53
2018-08-24T09:17:58.092Z,10.90
2018-08-24T09:21:30.150Z,10.83
2018-08-24T09:24:04.200Z,17.03
2018-08-24T09:26:38.114Z,9.33
2018-08-24T09:29:11.020Z,10.00
2018-08-24T09:31:41.194Z,11.70
2018-08-24T09:34:09.970Z,10.73
2018-08-24T09:36:38.919Z,9.00
2018-08-24T09:39:08.798Z,12.23
2018-08-24T09:41:37.819Z,10.37
2018-08-24T09:44:06.777Z,11.87
2018-08-24T09:46:40.783Z,10.33
2018-08-24T09:49:15.000Z,9.07
2018-08-24T09:51:43.739Z,10.27
2018-08-24T09:54:12.712Z,10.17
2018-08-24T09:56:41.813Z,9.40
2018-08-24T09:59:10.823Z,11.30
2018-08-24T10:01:44.898Z,12.30
2018-08-24T10:04:18.976Z,10.72
2018-08-24T10:06:53.005Z,9.03
2018-08-24T10:09:21.863Z,8.60
2018-08-24T10:11:50.394Z,9.80
2018-08-24T10:14:19.156Z,10.20
2018-08-24T10:16:47.776Z,9.40
2018-08-24T10:19:17.011Z,8.57
2018-08-24T10:21:45.796Z,9.17
2018-08-24T10:24:14.663Z,10.87
2018-08-24T10:26:43.314Z,9.27
2018-08-24T10:29:12.349Z,9.47
2018-08-24T10:31:41.243Z,9.47
2018-08-24T10:34:10.381Z,9.07
2018-08-24T10:36:38.983Z,9.70
2018-08-24T10:39:09.366Z,13.67
2018-08-24T10:41:37.918Z,9.20
2018-08-24T10:44:06.830Z,11.97
2018-08-24T10:46:35.436Z,9.83
2018-08-24T10:49:04.100Z,8.63
2018-08-24T10:51:33.179Z,8.17
2018-08-24T10:54:02.128Z,8.90
2018-08-24T10:56:31.182Z,8.80
2018-08-24T10:59:05.575Z,9.70
2018-08-24T11:01:36.648Z,8.37
2018-08-24T11:04:06.030Z,9.30
2018-08-24T11:06:34.713Z,9.00
2018-08-24T11:09:04.807Z,8.57
2018-08-24T11:11:33.893Z,9.77
2018-08-24T11:14:02.547Z,10.33
2018-08-24T11:16:31.294Z,10.40
2018-08-24T11:19:00.062Z,9.63
2018-08-24T11:21:29.029Z,9.27
2018-08-24T11:23:58.405Z,11.00
2018-08-24T11:26:27.364Z,10.20
2018-08-24T11:28:56.447Z,11.05
2018-08-24T11:31:25.664Z,11.70
2018-08-24T11:33:55.513Z,9.47
2018-08-24T11:36:24.544Z,10.70
2018-08-24T11:38:53.797Z,11.13
2018-08-24T11:41:22.889Z,10.30
2018-08-24T11:43:52.208Z,10.27
2018-08-24T11:46:22.548Z,9.90
2018-08-24T12:15:17.596Z,9.97
2018-08-24T12:17:46.565Z,10.23
2018-08-24T12:20:17.468Z,9.77
2018-08-24T12:22:46.609Z,10.00
2018-08-24T12:25:16.163Z,10.30
2018-08-24T12:27:45.102Z,13.77
2018-08-24T12:30:14.133Z,10.43
2018-08-24T12:32:44.497Z,10.60
2018-08-24T12:50:53.579Z,13.33
2018-08-24T12:53:37.520Z,14.43
2018-08-24T12:56:14.174Z,14.30
2018-08-24T12:58:43.863Z,15.17
2018-08-24T13:01:12.837Z,16.87
2018-08-24T13:03:41.477Z,16.00
2018-08-24T13:06:10.358Z,15.47
2018-08-24T13:08:39.569Z,14.97
2018-08-24T13:11:10.825Z,17.80
2018-08-24T13:13:39.720Z,16.87
2018-08-24T13:16:09.298Z,17.50
2018-08-24T13:18:41.864Z,18.20
2018-08-24T13:21:11.200Z,19.63
2018-08-24T13:23:40.740Z,17.60
2018-08-24T13:26:09.478Z,17.60
2018-08-24T13:28:38.215Z,17.67
2018-08-24T13:31:07.362Z,20.60
2018-08-24T13:33:36.375Z,18.77
2018-08-24T13:36:05.553Z,18.00
2018-08-24T13:38:34.369Z,18.97
2018-08-24T13:41:03.259Z,17.30
2018-08-24T13:43:32.210Z,16.67
2018-08-24T13:46:01.105Z,16.93
2018-08-24T13:48:30.221Z,16.87
2018-08-24T13:50:59.307Z,15.67
2018-08-24T13:53:28.366Z,16.83
2018-08-24T13:55:57.390Z,16.15
2018-08-24T13:58:26.816Z,17.70
2018-08-24T14:00:56.027Z,17.10
2018-08-24T14:03:28.402Z,16.17
2018-08-24T14:05:57.679Z,17.83
2018-08-24T14:08:31.299Z,15.97
2018-08-24T14:11:00.800Z,16.23
2018-08-24T14:13:34.207Z,16.83
2018-08-24T14:16:03.261Z,16.17
2018-08-24T14:18:32.396Z,18.87
2018-08-24T14:21:01.730Z,18.03
2018-08-24T14:23:30.767Z,15.40
2018-08-24T14:26:00.828Z,16.43
2018-08-24T14:28:30.199Z,15.20
2018-08-24T14:30:59.117Z,16.50
2018-08-24T14:33:28.110Z,16.90
2018-08-24T14:35:57.505Z,16.07
2018-08-24T14:38:26.787Z,17.60
2018-08-24T14:40:55.623Z,24.00
2018-08-24T14:43:24.639Z,15.15
2018-08-24T14:45:53.767Z,14.37
2018-08-24T14:48:23.117Z,15.93
2018-08-24T14:50:52.210Z,15.17
2018-08-24T14:53:21.637Z,14.00
2018-08-24T14:55:50.326Z,16.77
2018-08-24T14:58:19.184Z,15.20
2018-08-24T15:00:47.792Z,15.20
2018-08-24T15:03:16.508Z,15.20
2018-08-24T15:05:45.280Z,14.77
2018-08-24T15:08:14.164Z,15.87
2018-08-24T15:10:42.975Z,17.47
2018-08-24T15:13:11.868Z,16.70
2018-08-24T15:15:40.634Z,14.00
2018-08-24T15:18:10.980Z,14.63
2018-08-24T15:20:39.709Z,14.95
2018-08-24T15:23:11.596Z,16.37
2018-08-24T15:25:40.621Z,15.30
2018-08-24T15:28:09.483Z,15.63
2018-08-24T15:30:38.341Z,15.93
2018-08-24T15:33:07.096Z,16.47
2018-08-24T15:35:35.867Z,15.50
2018-08-24T15:38:05.381Z,13.70
2018-08-24T15:40:34.213Z,16.47
2018-08-24T15:43:03.163Z,14.90
2018-08-24T15:45:32.166Z,14.60
2018-08-24T15:48:00.997Z,17.03
2018-08-24T15:50:29.640Z,16.97
2018-08-24T15:53:00.295Z,16.57
2018-08-24T15:55:29.270Z,16.17
2018-08-24T15:57:58.263Z,15.03
2018-08-24T16:00:26.991Z,14.53
2018-08-24T16:02:56.240Z,15.43
2018-08-24T16:05:24.975Z,14.70
2018-08-24T16:07:54.046Z,14.97
2018-08-24T16:10:22.896Z,15.93
2018-08-24T16:12:52.204Z,16.07
2018-08-24T16:15:20.982Z,15.40
2018-08-24T16:18:26.873Z,14.40
2018-08-24T16:20:55.806Z,15.83
2018-08-24T16:23:24.697Z,14.97
2018-08-24T16:25:53.424Z,16.00
2018-08-24T16:28:22.184Z,13.60
2018-08-24T16:30:51.391Z,12.70
2018-08-24T16:33:20.628Z,13.28
2018-08-24T16:35:49.510Z,17.10
2018-08-24T16:38:18.306Z,13.20
2018-08-24T16:40:47.252Z,12.30
2018-08-24T16:43:16.184Z,15.80
2018-08-24T16:45:45.168Z,13.07
2018-08-24T16:48:13.874Z,14.30
2018-08-24T16:50:42.778Z,14.23
2018-08-24T16:53:11.622Z,13.73
2018-08-24T16:55:40.756Z,16.30
2018-08-24T16:58:09.491Z,14.17
2018-08-24T17:00:38.097Z,12.80
2018-08-24T17:03:07.137Z,13.13
2018-08-24T17:05:36.893Z,12.75
2018-08-24T17:08:06.206Z,13.20
2018-08-24T17:10:35.362Z,17.23
2018-08-24T17:13:04.233Z,15.27
2018-08-24T17:15:33.345Z,15.45
2018-08-24T17:18:02.178Z,14.70
2018-08-24T17:20:30.883Z,15.07
2018-08-24T17:22:59.603Z,11.53
2018-08-24T17:25:28.373Z,13.17
2018-08-24T17:27:58.015Z,13.23
2018-08-24T17:30:27.104Z,13.47
2018-08-24T17:32:56.340Z,13.97
2018-08-24T17:35:25.190Z,14.23
2018-08-24T17:37:54.834Z,16.70
2018-08-24T17:40:23.823Z,13.20
2018-08-24T17:42:52.801Z,16.73
2018-08-24T17:45:21.640Z,13.90
2018-08-24T17:47:50.444Z,16.60
2018-08-24T17:50:19.301Z,15.30
2018-08-24T17:52:47.944Z,13.07
2018-08-24T17:55:16.575Z,14.77
2018-08-24T17:57:46.384Z,13.55
2018-08-24T18:00:15.500Z,13.30
2018-08-24T18:02:44.345Z,15.37
2018-08-24T18:05:13.847Z,13.03
2018-08-24T18:07:42.848Z,11.40
2018-08-24T18:10:13.161Z,14.20
2018-08-24T18:12:41.917Z,17.07
2018-08-24T18:15:11.071Z,12.27
2018-08-24T18:17:39.931Z,13.60
2018-08-24T18:20:17.100Z,15.60
2018-08-24T18:22:49.048Z,13.25
2018-08-24T18:25:25.248Z,13.90
2018-08-24T18:28:00.355Z,13.60
2018-08-24T18:30:29.598Z,13.60
2018-08-24T18:33:03.459Z,11.80
2018-08-24T18:35:32.641Z,14.27
2018-08-24T18:38:01.597Z,14.53
2018-08-24T18:40:30.381Z,16.90
2018-08-24T18:42:59.320Z,14.10
2018-08-24T18:45:28.423Z,17.53
2018-08-24T18:47:57.280Z,14.00
2018-08-24T18:50:26.750Z,16.65
2018-08-24T18:52:55.556Z,14.80
2018-08-24T18:55:24.433Z,14.13
2018-08-24T18:57:53.631Z,15.80
2018-08-24T19:00:22.299Z,13.00
2018-08-24T19:02:51.123Z,14.10
2018-08-24T19:05:20.304Z,14.40
2018-08-24T19:07:53.207Z,12.87
2018-08-24T19:36:32.025Z,15.70
2018-08-24T19:39:00.792Z,13.77
2018-08-24T19:41:34.690Z,14.47
2018-08-24T19:44:03.466Z,13.93
2018-08-24T19:46:33.385Z,14.17
2018-08-24T19:49:07.421Z,14.40
2018-08-24T19:51:36.320Z,15.27
2018-08-24T19:54:05.020Z,14.30
2018-08-24T19:56:33.890Z,17.37
2018-08-24T19:59:04.967Z,14.30
2018-08-24T20:01:35.027Z,15.00
2018-08-24T20:04:04.969Z,13.63
2018-08-24T20:06:40.478Z,14.07
2018-08-24T20:09:15.714Z,13.60
2018-08-24T20:11:46.965Z,16.00
2018-08-24T20:14:16.380Z,15.40
2018-08-24T20:16:51.174Z,15.70
2018-08-24T20:19:20.410Z,13.77
2018-08-24T20:21:49.219Z,14.53
2018-08-24T20:24:18.450Z,15.00
2018-08-24T20:26:47.843Z,14.07
2018-08-24T20:29:17.596Z,14.63
2018-08-24T20:31:46.759Z,17.37
2018-08-24T20:34:15.721Z,15.30
2018-08-24T20:36:45.230Z,14.77
2018-08-24T20:39:14.423Z,16.10
2018-08-24T20:41:45.728Z,17.20
2018-08-24T20:44:15.984Z,16.90
2018-08-24T20:46:45.299Z,15.10
2018-08-24T20:49:14.305Z,15.15
2018-08-24T20:51:43.560Z,19.70
2018-08-24T20:54:12.874Z,16.50
2018-08-24T20:56:42.059Z,16.13
2018-08-24T20:59:12.688Z,20.50
2018-08-24T21:01:42.323Z,21.77
2018-08-24T21:04:11.390Z,16.50
2018-08-24T21:06:40.510Z,17.47
2018-08-24T21:09:10.634Z,16.27
2018-08-24T21:11:40.044Z,17.33
2018-08-24T21:14:09.392Z,16.00
2018-08-24T21:16:39.535Z,17.50
2018-08-24T21:19:08.571Z,15.20
2018-08-24T21:21:37.533Z,15.53
2018-08-24T21:24:07.375Z,16.13
2018-08-24T21:26:36.251Z,18.07
2018-08-24T21:29:06.004Z,16.70
2018-08-24T21:31:34.837Z,15.93
2018-08-24T21:34:03.894Z,15.93
2018-08-24T21:36:33.020Z,14.40
2018-08-24T21:39:01.944Z,15.17
2018-08-24T21:41:30.889Z,15.67
2018-08-24T21:43:59.645Z,19.93
2018-08-24T21:46:28.407Z,14.60
2018-08-24T21:48:57.263Z,15.50
2018-08-24T21:51:26.188Z,16.07
2018-08-24T21:53:55.131Z,13.60
2018-08-24T21:56:24.062Z,17.73
2018-08-24T21:58:53.061Z,16.53
2018-08-24T22:01:21.986Z,14.47
2018-08-24T22:03:50.918Z,13.00
2018-08-24T22:06:20.190Z,16.47
2018-08-24T22:08:49.148Z,13.23
2018-08-24T22:11:18.138Z,12.37
2018-08-24T22:13:46.757Z,14.83
2018-08-24T22:16:15.531Z,14.60
2018-08-24T22:18:44.221Z,14.00
2018-08-24T22:21:12.986Z,13.10
2018-08-24T22:23:41.550Z,14.00
2018-08-24T22:26:10.351Z,15.35
2018-08-24T22:28:40.593Z,13.10
2018-08-24T22:31:14.132Z,13.97
2018-08-24T22:33:43.307Z,15.20
2018-08-24T22:36:13.236Z,14.93
2018-08-24T22:38:42.286Z,14.87
2018-08-24T22:41:10.958Z,16.00
2018-08-24T22:43:41.317Z,12.63
2018-08-24T22:46:10.389Z,13.73
2018-08-24T22:48:39.314Z,16.30
2018-08-24T22:51:09.399Z,14.93
2018-08-24T22:53:38.361Z,15.23
2018-08-24T23:32:56.037Z,15.23
2018-08-24T23:35:24.914Z,11.67
2018-08-24T23:37:53.684Z,15.13
2018-08-24T23:40:22.461Z,11.93
2018-08-24T23:42:51.189Z,12.85
2018-08-24T23:45:20.027Z,13.60
2018-08-24T23:47:48.590Z,11.70
2018-08-24T23:50:17.406Z,14.97
2018-08-24T23:52:46.221Z,11.05
2018-08-24T23:55:15.048Z,13.53
2018-08-24T23:57:43.785Z,16.17
